Time;durP1;ratioP1;P1;durP2;ratioP2;P2;SDS_P1;SDS_P2;PMS_P1;PMS_P2;Temp;Humidity;BMP_temperature;BMP_pressure;BME280_temperature;BME280_humidity;BME280_pressure;Samples;Min_cycle;Max_cycle;Signal;HPM_P1;HPM_P2
2021/10/22 00:02:50;;;;;;;0.52;0.40;;;;;;;5.67;100.00;100732.25;6273573;28;20045;-79
2021/10/22 00:05:51;;;;;;;1.70;0.55;;;;;;;5.62;100.00;100734.16;6273779;28;20431;-78
2021/10/22 00:08:53;;;;;;;0.82;0.35;;;;;;;5.62;100.00;100739.38;6273410;28;20055;-78
2021/10/22 00:11:54;;;;;;;2.92;0.40;;;;;;;5.57;100.00;100742.13;6272695;28;20045;-77
2021/10/22 00:14:57;;;;;;;0.40;0.13;;;;;;;5.60;100.00;100745.50;6273132;28;20056;-77
2021/10/22 00:17:58;;;;;;;0.32;0.32;;;;;;;5.54;100.00;100763.97;6273287;28;20052;-76
2021/10/22 00:21:00;;;;;;;0.90;0.30;;;;;;;5.54;100.00;100773.50;6272046;28;20045;-77
2021/10/22 00:24:01;;;;;;;0.32;0.20;;;;;;;5.52;100.00;100767.50;6272629;28;20045;-76
2021/10/22 00:27:03;;;;;;;4.25;0.98;;;;;;;5.56;100.00;100766.50;6272826;28;20419;-76
2021/10/22 00:30:07;;;;;;;5.65;0.50;;;;;;;5.54;100.00;100765.69;6271739;28;20052;-77
2021/10/22 00:33:08;;;;;;;2.08;0.30;;;;;;;5.54;100.00;100760.47;6271899;28;20179;-78
2021/10/22 00:36:11;;;;;;;2.05;0.80;;;;;;;5.58;100.00;100769.91;6272925;28;20167;-77
2021/10/22 00:39:12;;;;;;;0.45;0.40;;;;;;;5.56;100.00;100764.75;6272755;28;20049;-77
2021/10/22 00:42:14;;;;;;;1.13;0.47;;;;;;;5.60;100.00;100757.69;6272885;28;20397;-77
2021/10/22 00:45:16;;;;;;;0.60;0.20;;;;;;;5.58;100.00;100762.06;6272354;28;20060;-78
2021/10/22 00:48:19;;;;;;;1.65;0.20;;;;;;;5.56;100.00;100763.91;6272853;28;20064;-78
2021/10/22 00:51:21;;;;;;;0.10;0.10;;;;;;;5.51;100.00;100764.03;6272225;28;20582;-77
2021/10/22 00:54:22;;;;;;;0.13;0.10;;;;;;;5.50;100.00;100761.50;6271986;28;20056;-77
2021/10/22 00:57:24;;;;;;;1.75;0.47;;;;;;;5.49;100.00;100760.63;6272735;28;20055;-77
2021/10/22 01:00:26;;;;;;;0.10;0.10;;;;;;;5.45;100.00;100763.38;6271134;28;20041;-79
2021/10/22 01:03:28;;;;;;;0.35;0.10;;;;;;;5.44;100.00;100759.06;6272001;28;20420;-77
2021/10/22 01:06:29;;;;;;;2.10;0.10;;;;;;;5.46;100.00;100771.16;6272268;28;20049;-77
2021/10/22 01:09:31;;;;;;;1.88;0.63;;;;;;;5.47;100.00;100772.00;6272051;28;20049;-77
2021/10/22 01:12:32;;;;;;;2.80;0.47;;;;;;;5.45;100.00;100758.16;6271735;28;20052;-77
2021/10/22 01:15:36;;;;;;;1.38;0.40;;;;;;;5.46;100.00;100765.94;6272033;28;20059;-78
2021/10/22 01:18:37;;;;;;;0.00;0.00;;;;;;;5.42;100.00;100760.88;6271831;28;20569;-78
2021/10/22 01:21:40;;;;;;;0.52;0.30;;;;;;;5.36;100.00;100754.13;6272210;28;20495;-77
2021/10/22 01:24:41;;;;;;;2.03;0.55;;;;;;;5.38;100.00;100754.06;6271694;28;20049;-78
2021/10/22 01:27:44;;;;;;;7.60;0.35;;;;;;;5.41;100.00;100739.19;6271670;28;20060;-77
2021/10/22 01:30:47;;;;;;;0.30;0.30;;;;;;;5.39;100.00;100745.34;6271426;28;20041;-78
2021/10/22 01:33:49;;;;;;;1.45;0.40;;;;;;;5.39;100.00;100750.53;6272383;28;20441;-77
2021/10/22 01:36:52;;;;;;;0.30;0.20;;;;;;;5.35;100.00;100755.00;6271926;28;20053;-78
2021/10/22 01:39:53;;;;;;;0.45;0.38;;;;;;;5.41;100.00;100751.38;6272367;28;20670;-78
2021/10/22 01:42:55;;;;;;;0.32;0.30;;;;;;;5.35;100.00;100752.41;6273194;28;20056;-78
2021/10/22 01:45:57;;;;;;;1.65;0.13;;;;;;;5.34;100.00;100759.34;6272658;28;20045;-78
2021/10/22 01:48:58;;;;;;;0.25;0.25;;;;;;;5.44;100.00;100764.28;6271937;28;20045;-77
2021/10/22 01:52:02;;;;;;;1.73;0.70;;;;;;;5.40;100.00;100758.31;6271659;28;20404;-77
2021/10/22 01:55:04;;;;;;;0.95;0.88;;;;;;;5.37;100.00;100757.56;6271564;28;20060;-76
2021/10/22 01:58:05;;;;;;;0.63;0.55;;;;;;;5.34;100.00;100758.50;6271955;28;20053;-78
2021/10/22 02:01:06;;;;;;;5.55;0.60;;;;;;;5.41;100.00;100761.78;6258416;28;20049;-77
2021/10/22 02:04:08;;;;;;;1.95;0.70;;;;;;;5.38;100.00;100747.09;6246686;28;20056;-76
2021/10/22 02:07:11;;;;;;;4.40;0.50;;;;;;;5.43;100.00;100752.16;6246518;28;20054;-77
2021/10/22 02:10:12;;;;;;;3.20;0.20;;;;;;;5.44;100.00;100754.69;6270553;22;20024;-74
2021/10/22 02:13:13;;;;;;;1.60;0.38;;;;;;;5.39;100.00;100756.59;6246363;28;20053;-72
2021/10/22 02:16:15;;;;;;;0.43;0.20;;;;;;;5.38;100.00;100748.84;6260705;28;20053;-72
2021/10/22 02:19:16;;;;;;;7.65;0.40;;;;;;;5.37;100.00;100749.75;6266269;28;20064;-72
2021/10/22 02:22:19;;;;;;;0.28;0.25;;;;;;;5.34;100.00;100740.28;6246146;28;20409;-73
2021/10/22 02:25:22;;;;;;;1.10;0.63;;;;;;;5.38;100.00;100741.03;6245876;28;20049;-72
2021/10/22 02:28:23;;;;;;;0.60;0.40;;;;;;;5.39;100.00;100742.72;6246359;28;20057;-72
2021/10/22 02:31:25;;;;;;;0.75;0.40;;;;;;;5.38;100.00;100741.88;6259079;28;20052;-75
2021/10/22 02:34:26;;;;;;;1.75;0.30;;;;;;;5.40;100.00;100742.66;6270627;28;20049;-75
2021/10/22 02:37:29;;;;;;;2.95;0.55;;;;;;;5.39;100.00;100730.56;6270660;28;20049;-73
2021/10/22 02:40:30;;;;;;;0.98;0.30;;;;;;;5.43;100.00;100719.13;6270942;28;20056;-75
2021/10/22 02:43:32;;;;;;;0.52;0.30;;;;;;;5.41;100.00;100718.34;6270350;28;20076;-74
2021/10/22 02:46:33;;;;;;;3.30;0.40;;;;;;;5.43;100.00;100705.25;6274820;28;20060;-75
2021/10/22 02:49:36;;;;;;;1.20;0.30;;;;;;;5.43;100.00;100702.66;6275062;28;20056;-75
2021/10/22 02:52:39;;;;;;;2.05;0.47;;;;;;;5.46;100.00;100695.59;6275186;28;20049;-74
2021/10/22 02:55:40;;;;;;;4.63;1.42;;;;;;;5.44;100.00;100701.72;6274693;28;20046;-75
2021/10/22 02:58:42;;;;;;;0.77;0.43;;;;;;;5.46;100.00;100703.41;6274877;28;20053;-74
2021/10/22 03:01:43;;;;;;;0.17;0.17;;;;;;;5.50;100.00;100686.75;6261231;28;20496;-75
2021/10/22 03:04:44;;;;;;;4.68;0.55;;;;;;;5.52;100.00;100697.13;6249626;28;20128;-73
2021/10/22 03:07:47;;;;;;;1.08;0.47;;;;;;;5.58;100.00;100695.16;6250136;28;20056;-75
2021/10/22 03:10:48;;;;;;;2.33;0.68;;;;;;;5.62;100.00;100677.66;6269763;28;20641;-74
2021/10/22 03:13:50;;;;;;;0.43;0.30;;;;;;;5.63;100.00;100681.97;6274507;28;20511;-75
2021/10/22 03:16:51;;;;;;;5.07;1.10;;;;;;;5.65;100.00;100677.56;6274935;28;20496;-73
2021/10/22 03:19:53;;;;;;;0.70;0.20;;;;;;;5.63;100.00;100675.91;6274589;28;20044;-74
2021/10/22 03:22:55;;;;;;;6.13;1.00;;;;;;;5.66;100.00;100691.44;6274446;28;20056;-72
2021/10/22 03:25:57;;;;;;;1.02;0.40;;;;;;;5.69;100.00;100680.94;6274274;28;20049;-75
2021/10/22 03:28:58;;;;;;;7.03;0.38;;;;;;;5.69;100.00;100676.56;6274538;28;20052;-71
2021/10/22 03:31:59;;;;;;;0.55;0.32;;;;;;;5.67;100.00;100652.28;6273864;28;20048;-73
2021/10/22 03:35:01;;;;;;;1.30;0.52;;;;;;;5.66;100.00;100681.03;6274002;28;20052;-72
2021/10/22 03:38:04;;;;;;;0.60;0.60;;;;;;;5.70;100.00;100654.78;6251581;28;20489;-72
2021/10/22 03:41:07;;;;;;;1.38;0.30;;;;;;;5.69;100.00;100662.69;6249284;28;20049;-71
2021/10/22 03:44:08;;;;;;;0.35;0.15;;;;;;;5.63;100.00;100653.28;6248947;28;20568;-71
2021/10/22 03:47:09;;;;;;;0.73;0.55;;;;;;;5.63;100.00;100647.22;6249170;28;20050;-72
2021/10/22 03:50:13;;;;;;;2.28;0.30;;;;;;;5.63;100.00;100655.03;6248878;28;20084;-73
2021/10/22 03:53:16;;;;;;;1.40;0.50;;;;;;;5.63;100.00;100647.22;6248908;28;20053;-72
2021/10/22 03:56:17;;;;;;;0.57;0.30;;;;;;;5.62;100.00;100633.34;6248407;28;20389;-73
2021/10/22 03:59:18;;;;;;;4.78;0.80;;;;;;;5.63;100.00;100635.03;6248630;28;20441;-73
2021/10/22 04:02:20;;;;;;;1.67;0.40;;;;;;;5.57;100.00;100643.09;6268930;28;20056;-73
2021/10/22 04:05:21;;;;;;;13.30;0.85;;;;;;;5.66;100.00;100641.91;6272989;28;20523;-74
2021/10/22 04:08:23;;;;;;;2.85;0.43;;;;;;;5.55;100.00;100634.47;6273406;28;20049;-72
2021/10/22 04:11:25;;;;;;;1.65;0.32;;;;;;;5.51;100.00;100638.09;6272797;28;20393;-72
2021/10/22 04:14:26;;;;;;;0.88;0.52;;;;;;;5.53;100.00;100646.69;6272878;28;20053;-75
2021/10/22 04:17:28;;;;;;;3.38;0.25;;;;;;;5.52;100.00;100647.59;6273057;28;20135;-73
2021/10/22 04:20:29;;;;;;;0.10;0.10;;;;;;;5.61;100.00;100647.28;6273153;28;20045;-75
2021/10/22 04:23:32;;;;;;;5.57;0.40;;;;;;;5.67;100.00;100649.69;6272006;28;20049;-76
2021/10/22 04:26:33;;;;;;;1.75;0.50;;;;;;;5.63;100.00;100658.50;6267926;28;20626;-75
2021/10/22 04:29:35;;;;;;;2.05;0.85;;;;;;;5.60;100.00;100656.88;6272540;28;20416;-74
2021/10/22 04:32:36;;;;;;;3.88;0.60;;;;;;;5.59;100.00;100660.38;6272562;28;20053;-73
2021/10/22 04:35:37;;;;;;;0.80;0.60;;;;;;;5.60;100.00;100654.25;6271987;28;20076;-74
2021/10/22 04:41:59;;;;;;;0.75;0.47;;;;;;;5.71;100.00;100660.84;6272627;28;20049;-75
2021/10/22 04:45:00;;;;;;;0.70;0.50;;;;;;;5.79;100.00;100659.69;6271996;28;20045;-72
2021/10/22 04:48:04;;;;;;;3.63;0.60;;;;;;;5.84;100.00;100654.31;6272454;28;20041;-74
2021/10/22 04:51:06;;;;;;;1.20;0.57;;;;;;;5.88;100.00;100642.03;6271385;28;20048;-74
2021/10/22 04:54:09;;;;;;;0.57;0.55;;;;;;;5.85;100.00;100643.81;6272176;28;20080;-75
2021/10/22 04:57:10;;;;;;;3.65;0.43;;;;;;;5.84;100.00;100641.28;6268246;28;20049;-74
2021/10/22 05:00:13;;;;;;;1.00;0.43;;;;;;;5.85;100.00;100646.41;6270250;28;20056;-73
2021/10/22 05:03:15;;;;;;;1.55;0.68;;;;;;;5.89;100.00;100626.31;6268953;28;20420;-74
2021/10/22 05:06:16;;;;;;;0.95;0.70;;;;;;;5.93;100.00;100627.94;6271172;28;20053;-72
2021/10/22 05:09:19;;;;;;;3.70;0.82;;;;;;;5.93;100.00;100614.03;6271435;28;20060;-72
2021/10/22 05:12:22;;;;;;;3.38;0.55;;;;;;;5.96;100.00;100603.50;6270612;28;20480;-73
2021/10/22 05:15:25;;;;;;;1.10;0.60;;;;;;;5.93;100.00;100609.69;6271544;28;20508;-74
2021/10/22 05:18:27;;;;;;;1.10;0.28;;;;;;;5.92;100.00;100612.34;6271626;28;20143;-73
2021/10/22 05:21:29;;;;;;;1.25;0.30;;;;;;;5.87;100.00;100614.25;6271821;28;20508;-73
2021/10/22 05:24:32;;;;;;;4.47;0.57;;;;;;;5.89;100.00;100608.06;6271304;28;20052;-75
2021/10/22 05:27:33;;;;;;;1.13;0.30;;;;;;;5.89;100.00;100605.44;6261039;28;20053;-73
2021/10/22 05:30:34;;;;;;;6.30;0.55;;;;;;;5.83;100.00;100603.91;6268640;28;20053;-73
2021/10/22 05:33:36;;;;;;;0.80;0.60;;;;;;;5.84;100.00;100594.34;6267932;28;20068;-73
2021/10/22 05:36:37;;;;;;;3.08;0.85;;;;;;;5.82;100.00;100576.16;6271408;28;20045;-74
2021/10/22 05:39:40;;;;;;;2.72;0.63;;;;;;;5.82;100.00;100573.53;6271365;28;20045;-75
2021/10/22 05:42:41;;;;;;;0.32;0.32;;;;;;;5.85;100.00;100583.84;6269687;28;20447;-72
2021/10/22 05:45:43;;;;;;;1.45;0.45;;;;;;;5.84;100.00;100578.69;6269292;28;20408;-72
2021/10/22 05:48:44;;;;;;;2.30;0.50;;;;;;;5.80;100.00;100564.91;6269665;28;20193;-73
2021/10/22 05:51:46;;;;;;;0.28;0.28;;;;;;;5.85;100.00;100564.72;6270772;28;20041;-74
2021/10/22 05:54:48;;;;;;;1.25;0.43;;;;;;;5.87;100.00;100564.69;6270961;28;20447;-73
2021/10/22 05:57:50;;;;;;;3.92;1.00;;;;;;;5.94;100.00;100559.22;6251556;28;20183;-72
2021/10/22 06:00:51;;;;;;;2.05;0.60;;;;;;;5.92;100.00;100570.63;6246492;28;20045;-74
2021/10/22 06:03:53;;;;;;;1.02;0.47;;;;;;;6.02;100.00;100566.75;6246315;28;20132;-72
2021/10/22 06:06:54;;;;;;;5.43;0.30;;;;;;;6.08;100.00;100556.09;6246279;28;20053;-75
2021/10/22 06:09:57;;;;;;;1.13;0.75;;;;;;;6.01;100.00;100552.88;6246444;28;20488;-74
2021/10/22 06:12:58;;;;;;;5.03;0.63;;;;;;;6.05;100.00;100561.44;6246350;28;20126;-74
2021/10/22 06:15:59;;;;;;;2.53;0.63;;;;;;;5.99;100.00;100559.03;6246053;28;20049;-73
2021/10/22 06:19:02;;;;;;;2.13;0.47;;;;;;;6.01;100.00;100563.31;6246517;28;20065;-73
2021/10/22 06:22:34;;;;;;;4.05;0.30;;;;;;;6.00;100.00;100566.81;6251106;28;20408;-73
2021/10/22 06:25:38;;;;;;;0.47;0.40;;;;;;;6.03;100.00;100566.69;6250669;28;20056;-73
2021/10/22 06:28:39;;;;;;;1.40;0.45;;;;;;;6.11;100.00;100561.19;6273465;28;20049;-74
2021/10/22 06:31:41;;;;;;;3.72;0.68;;;;;;;6.16;100.00;100559.25;6275322;28;20041;-71
2021/10/22 06:34:43;;;;;;;0.75;0.40;;;;;;;6.13;100.00;100554.16;6275387;28;20138;-72
2021/10/22 06:37:44;;;;;;;0.57;0.50;;;;;;;6.18;100.00;100564.44;6275311;28;20056;-72
2021/10/22 06:40:47;;;;;;;0.30;0.20;;;;;;;6.22;100.00;100558.16;6275730;28;20531;-73
2021/10/22 06:43:48;;;;;;;6.43;0.70;;;;;;;6.29;100.00;100567.47;6274840;28;20041;-72
2021/10/22 06:46:50;;;;;;;1.50;0.30;;;;;;;6.33;100.00;100569.06;6275307;28;20045;-72
2021/10/22 06:49:51;;;;;;;0.50;0.50;;;;;;;6.32;100.00;100570.81;6274625;28;20051;-72
2021/10/22 06:52:53;;;;;;;1.38;0.63;;;;;;;6.38;100.00;100566.28;6274660;28;20411;-75
2021/10/22 06:55:56;;;;;;;1.48;0.63;;;;;;;6.34;100.00;100562.91;6274531;28;20063;-74
2021/10/22 06:58:57;;;;;;;2.38;0.43;;;;;;;6.35;100.00;100559.38;6272590;28;20056;-71
2021/10/22 07:01:59;;;;;;;0.45;0.45;;;;;;;6.40;100.00;100560.06;6274126;28;20044;-74
2021/10/22 07:05:11;;;;;;;2.75;1.00;;;;;;;6.48;100.00;100563.22;6273358;28;20574;-74
2021/10/22 07:08:12;;;;;;;4.57;0.60;;;;;;;6.54;100.00;100559.50;6272080;28;20415;-74
2021/10/22 07:11:17;;;;;;;0.68;0.30;;;;;;;6.54;100.00;100569.97;6274435;28;20067;-74
2021/10/22 07:14:18;;;;;;;3.75;0.57;;;;;;;6.70;100.00;100565.84;6274360;28;20051;-75
2021/10/22 07:17:20;;;;;;;0.82;0.82;;;;;;;6.67;100.00;100559.88;6274530;28;20056;-73
2021/10/22 07:20:21;;;;;;;0.70;0.47;;;;;;;6.69;100.00;100561.53;6274569;28;20060;-74
2021/10/22 07:23:24;;;;;;;1.45;0.50;;;;;;;6.73;100.00;100557.91;6274254;28;20045;-75
2021/10/22 07:26:27;;;;;;;5.95;1.02;;;;;;;6.77;100.00;100563.84;6274430;28;20049;-72
2021/10/22 07:29:28;;;;;;;1.25;0.75;;;;;;;6.91;100.00;100551.06;6259710;28;20049;-74
2021/10/22 07:32:30;;;;;;;7.55;0.77;;;;;;;6.85;100.00;100564.34;6273751;28;20049;-71
2021/10/22 07:35:31;;;;;;;1.20;0.22;;;;;;;6.89;100.00;100565.09;6274118;28;20188;-72
2021/10/22 07:38:33;;;;;;;10.80;0.63;;;;;;;6.83;100.00;100569.66;6273974;28;20415;-71
2021/10/22 07:41:36;;;;;;;1.90;0.93;;;;;;;6.93;100.00;100549.22;6273893;28;20531;-72
2021/10/22 07:44:37;;;;;;;1.50;0.45;;;;;;;7.00;100.00;100562.91;6273784;28;20041;-73
2021/10/22 07:47:38;;;;;;;3.13;0.50;;;;;;;7.00;100.00;100555.06;6273874;28;20488;-73
2021/10/22 07:50:40;;;;;;;2.88;1.02;;;;;;;7.07;100.00;100551.25;6273825;28;20076;-72
2021/10/22 07:53:41;;;;;;;1.05;0.50;;;;;;;7.14;100.00;100551.88;6273485;28;20048;-75
2021/10/22 07:56:44;;;;;;;3.30;0.50;;;;;;;7.16;100.00;100558.72;6268789;28;20050;-73
2021/10/22 07:59:46;;;;;;;0.30;0.30;;;;;;;7.29;100.00;100559.06;6248867;28;20057;-75
2021/10/22 08:02:47;;;;;;;5.65;0.73;;;;;;;7.32;100.00;100567.63;6248774;28;20048;-75
2021/10/22 08:05:49;;;;;;;2.67;0.70;;;;;;;7.37;100.00;100588.34;6248603;28;20049;-72
2021/10/22 08:08:51;;;;;;;1.20;0.77;;;;;;;7.46;100.00;100555.72;6248655;28;20049;-74
2021/10/22 08:11:53;;;;;;;3.65;0.60;;;;;;;7.52;100.00;100558.91;6286554;22;20412;-79
2021/10/22 08:14:55;;;;;;;0.57;0.43;;;;;;;7.56;100.00;100560.47;6277672;28;20048;-78
2021/10/22 08:17:57;;;;;;;3.30;0.30;;;;;;;7.66;100.00;100557.44;6259482;28;20420;-79
2021/10/22 08:21:02;;;;;;;1.00;0.50;;;;;;;7.65;100.00;100545.28;6273619;28;20060;-78
2021/10/22 08:24:03;;;;;;;6.55;0.43;;;;;;;7.73;99.59;100544.03;6279959;28;20495;-80
2021/10/22 08:27:06;;;;;;;3.45;1.00;;;;;;;7.86;98.31;100544.34;6280804;28;20044;-80
2021/10/22 08:30:10;;;;;;;4.50;0.50;;;;;;;7.76;100.00;100556.13;6279849;28;20053;-81
2021/10/22 08:33:12;;;;;;;3.05;0.50;;;;;;;7.73;100.00;100541.41;6279827;28;20496;-81
2021/10/22 08:36:14;;;;;;;4.10;0.70;;;;;;;7.89;99.72;100542.41;6282771;28;20494;-78
2021/10/22 08:39:16;;;;;;;9.20;1.27;;;;;;;7.99;98.64;100549.84;6285969;28;20053;-79
2021/10/22 08:42:21;;;;;;;1.25;0.32;;;;;;;7.89;99.14;100542.41;6281844;28;20079;-78
2021/10/22 08:45:23;;;;;;;2.47;1.35;;;;;;;7.86;99.75;100550.41;6287984;28;20055;-82
2021/10/22 08:48:24;;;;;;;4.47;0.85;;;;;;;7.96;98.79;100563.09;6285769;28;20056;-82
2021/10/22 08:51:27;;;;;;;5.85;0.50;;;;;;;8.01;98.31;100548.88;6285988;28;20230;-80
2021/10/22 08:54:28;;;;;;;2.17;0.93;;;;;;;8.05;98.77;100565.28;6285285;28;20044;-79
2021/10/22 08:57:31;;;;;;;3.53;0.77;;;;;;;8.13;98.29;100550.94;6283252;28;20049;-79
2021/10/22 09:00:32;;;;;;;1.60;0.40;;;;;;;8.06;98.63;100546.88;6283530;28;20095;-81
2021/10/22 09:03:38;;;;;;;1.35;0.75;;;;;;;8.10;99.82;100548.44;6284778;28;20067;-79
2021/10/22 09:06:50;;;;;;;2.40;0.70;;;;;;;8.09;99.77;100548.53;6267182;28;20045;-80
2021/10/22 09:10:05;;;;;;;0.82;0.50;;;;;;;8.09;100.00;100553.75;6261254;28;20107;-78
2021/10/22 09:13:08;;;;;;;0.63;0.30;;;;;;;8.10;99.81;100553.69;6252833;28;20045;-78
2021/10/22 09:16:20;;;;;;;2.65;0.82;;;;;;;8.13;100.00;100552.69;6274069;28;20099;-79
2021/10/22 09:19:33;;;;;;;1.75;0.57;;;;;;;7.99;100.00;100537.59;6272688;28;20052;-77
2021/10/22 09:22:35;;;;;;;0.38;0.28;;;;;;;8.10;100.00;100547.59;6259492;28;20420;-78
2021/10/22 09:25:40;;;;;;;0.68;0.60;;;;;;;8.07;100.00;100532.88;6251007;28;20057;-78
2021/10/22 09:28:44;;;;;;;3.08;0.77;;;;;;;8.17;100.00;100545.53;6268767;28;20048;-77
2021/10/22 09:31:47;;;;;;;2.17;0.75;;;;;;;8.35;100.00;100547.28;6273718;28;20052;-77
2021/10/22 09:34:51;;;;;;;0.80;0.65;;;;;;;8.41;100.00;100533.94;6272928;28;20045;-78
2021/10/22 09:37:53;;;;;;;5.38;1.10;;;;;;;8.48;98.39;100532.72;6250958;28;20071;-78
2021/10/22 09:40:56;;;;;;;2.05;0.65;;;;;;;8.38;98.80;100536.69;6273809;28;20045;-78
2021/10/22 09:44:17;;;;;;;0.90;0.50;;;;;;;8.36;100.00;100542.03;6272166;28;20045;-75
2021/10/22 09:47:20;;;;;;;9.20;1.30;;;;;;;8.40;98.92;100550.56;6271618;28;20049;-76
2021/10/22 09:50:28;;;;;;;3.33;0.60;;;;;;;8.49;100.00;100536.19;6271946;28;20554;-77
2021/10/22 09:53:36;;;;;;;6.03;0.70;;;;;;;8.53;99.60;100543.81;6269735;28;20141;-78
2021/10/22 09:56:39;;;;;;;2.13;0.55;;;;;;;8.48;100.00;100551.03;6275866;28;20054;-77
2021/10/22 09:59:44;;;;;;;2.65;0.40;;;;;;;8.53;99.93;100542.97;6279759;28;20056;-81
2021/10/22 10:02:46;;;;;;;8.23;0.85;;;;;;;8.53;99.48;100548.22;6282258;28;20045;-77
2021/10/22 10:05:47;;;;;;;2.75;0.63;;;;;;;8.58;99.60;100552.31;6282224;28;20538;-79
2021/10/22 10:08:48;;;;;;;3.90;0.88;;;;;;;8.61;100.00;100546.91;6284286;28;20060;-80
2021/10/22 10:11:53;;;;;;;0.68;0.63;;;;;;;8.60;100.00;100555.72;6285164;28;20144;-79
2021/10/22 10:14:56;;;;;;;5.55;1.05;;;;;;;8.54;100.00;100549.91;6287420;28;20125;-80
2021/10/22 10:18:00;;;;;;;1.00;0.45;;;;;;;8.59;99.22;100553.16;6285646;28;20504;-80
2021/10/22 10:21:05;;;;;;;2.15;0.60;;;;;;;8.76;97.42;100563.66;6282842;28;20056;-79
2021/10/22 10:24:08;;;;;;;0.77;0.50;;;;;;;8.89;95.47;100562.13;6286691;28;20052;-77
2021/10/22 10:27:11;;;;;;;6.50;0.60;;;;;;;8.85;97.10;100565.81;6276243;28;20519;-80
2021/10/22 10:30:26;;;;;;;4.82;0.50;;;;;;;9.07;94.50;100552.50;6277007;28;20041;-79
2021/10/22 10:33:33;;;;;;;1.58;0.75;;;;;;;9.13;95.45;100560.09;6283827;28;20080;-81
2021/10/22 10:36:45;;;;;;;1.05;0.50;;;;;;;9.29;93.44;100561.91;6286570;28;20059;-80
2021/10/22 10:40:11;;;;;;;3.85;0.68;;;;;;;9.26;95.92;100559.44;6286535;28;20075;-80
2021/10/22 10:43:20;;;;;;;1.35;0.60;;;;;;;9.13;98.59;100575.81;6286365;28;20041;-80
2021/10/22 10:46:35;;;;;;;0.55;0.55;;;;;;;9.05;98.30;100588.44;6287514;28;20483;-80
2021/10/22 10:49:58;;;;;;;4.10;0.70;;;;;;;8.76;100.00;100589.84;6287539;28;20056;-78
2021/10/22 10:53:00;;;;;;;0.63;0.52;;;;;;;8.35;100.00;100602.25;6287471;28;20048;-80
2021/10/22 10:56:03;;;;;;;0.50;0.50;;;;;;;8.28;100.00;100603.47;6288535;28;20049;-78
2021/10/22 10:59:04;;;;;;;1.48;0.47;;;;;;;8.00;100.00;100603.91;6285099;28;20055;-79
2021/10/22 11:02:07;;;;;;;1.52;1.38;;;;;;;7.79;100.00;100587.38;6285201;28;20045;-79
2021/10/22 11:05:09;;;;;;;3.05;0.75;;;;;;;7.73;100.00;100582.44;6277006;28;20049;-80
2021/10/22 11:08:14;;;;;;;1.98;0.80;;;;;;;7.72;100.00;100576.34;6275979;28;20048;-79
2021/10/22 11:11:28;;;;;;;3.53;0.75;;;;;;;7.73;100.00;100585.88;6276022;28;20052;-80
2021/10/22 11:14:41;;;;;;;3.60;0.77;;;;;;;7.72;100.00;100596.41;6255714;28;20071;-78
2021/10/22 11:17:44;;;;;;;1.35;0.70;;;;;;;7.75;100.00;100588.44;6251014;28;20061;-77
2021/10/22 11:20:48;;;;;;;1.38;0.77;;;;;;;7.76;100.00;100590.13;6251230;28;20417;-77
2021/10/22 11:23:50;;;;;;;1.40;0.88;;;;;;;7.81;100.00;100590.75;6251200;28;20052;-78
2021/10/22 11:26:56;;;;;;;1.15;0.40;;;;;;;7.77;100.00;100591.84;6253313;28;20059;-77
2021/10/22 11:30:02;;;;;;;0.90;0.40;;;;;;;7.92;100.00;100599.00;6269507;28;20450;-78
2021/10/22 11:33:05;;;;;;;4.30;0.95;;;;;;;7.85;100.00;100600.19;6266495;28;20045;-78
2021/10/22 11:36:07;;;;;;;1.90;0.68;;;;;;;7.80;100.00;100608.22;6273812;28;20124;-78
2021/10/22 11:39:18;;;;;;;1.52;0.55;;;;;;;7.82;100.00;100600.34;6269668;28;20049;-78
2021/10/22 11:42:24;;;;;;;0.88;0.50;;;;;;;7.82;100.00;100609.03;6274481;28;20049;-77
2021/10/22 11:45:26;;;;;;;2.17;0.80;;;;;;;7.81;100.00;100598.59;6271428;28;20128;-75
2021/10/22 11:48:32;;;;;;;3.38;1.00;;;;;;;7.88;100.00;100613.13;6264449;28;20095;-76
2021/10/22 11:51:34;;;;;;;1.85;0.60;;;;;;;7.95;100.00;100639.84;6265475;28;20048;-77
2021/10/22 11:54:38;;;;;;;1.65;0.93;;;;;;;7.84;100.00;100661.28;6258290;28;20056;-75
2021/10/22 11:57:39;;;;;;;0.88;0.77;;;;;;;7.79;100.00;100640.53;6248487;28;20045;-77
2021/10/22 12:00:49;;;;;;;2.67;0.90;;;;;;;7.67;100.00;100662.00;6251173;28;20050;-77
2021/10/22 12:03:55;;;;;;;4.95;0.55;;;;;;;7.59;100.00;100670.19;6250299;28;20053;-78
2021/10/22 12:07:01;;;;;;;1.45;0.80;;;;;;;7.54;100.00;100687.84;6251626;28;20504;-78
2021/10/22 12:10:04;;;;;;;0.65;0.50;;;;;;;7.48;100.00;100682.84;6249950;28;20108;-77
2021/10/22 12:13:05;;;;;;;5.47;1.48;;;;;;;7.50;100.00;100686.25;6250164;28;20049;-78
2021/10/22 12:16:13;;;;;;;1.20;0.77;;;;;;;7.45;100.00;100696.06;6249411;28;20053;-78
2021/10/22 12:19:16;;;;;;;1.27;0.50;;;;;;;7.45;100.00;100676.88;6249303;28;20053;-76
2021/10/22 12:22:25;;;;;;;1.23;0.75;;;;;;;7.53;100.00;100677.41;6249069;28;20066;-77
2021/10/22 12:25:28;;;;;;;2.10;0.68;;;;;;;7.56;100.00;100691.22;6272217;28;20774;-77
2021/10/22 12:28:30;;;;;;;4.43;0.77;;;;;;;7.56;100.00;100686.00;6272835;28;20071;-76
2021/10/22 12:31:32;;;;;;;0.52;0.50;;;;;;;7.54;100.00;100690.44;6273056;28;20053;-76
2021/10/22 12:34:35;;;;;;;0.55;0.55;;;;;;;7.57;100.00;100687.69;6276397;28;20052;-76
2021/10/22 12:37:39;;;;;;;1.67;0.70;;;;;;;7.63;100.00;100679.59;6270720;28;20150;-76
2021/10/22 12:40:42;;;;;;;0.55;0.50;;;;;;;7.62;100.00;100693.56;6257042;28;20049;-77
2021/10/22 12:43:44;;;;;;;4.65;0.40;;;;;;;7.73;100.00;100693.13;6265118;28;20048;-76
2021/10/22 12:46:53;;;;;;;2.90;1.88;;;;;;;7.71;100.00;100699.34;6270460;28;20045;-76
2021/10/22 12:49:55;;;;;;;1.42;0.80;;;;;;;7.70;100.00;100708.09;6264102;28;20049;-76
2021/10/22 12:52:58;;;;;;;0.47;0.47;;;;;;;7.72;100.00;100703.63;6272138;28;20052;-76
2021/10/22 12:56:03;;;;;;;0.68;0.57;;;;;;;7.81;100.00;100714.59;6271306;28;20052;-77
2021/10/22 12:59:09;;;;;;;0.20;0.20;;;;;;;7.82;100.00;100721.53;6272043;28;20053;-76
2021/10/22 13:02:24;;;;;;;0.20;0.10;;;;;;;7.78;100.00;100724.34;6263799;28;20045;-75
2021/10/22 13:05:27;;;;;;;0.30;0.20;;;;;;;7.79;100.00;100728.63;6271521;28;20048;-75
2021/10/22 13:08:41;;;;;;;0.15;0.15;;;;;;;7.83;100.00;100751.16;6272101;28;20531;-76
2021/10/22 13:15:42;;;;;;;0.35;0.35;;;;;;;7.81;100.00;100747.72;6318726;28;20872;-76
2021/10/22 13:22:02;;;;;;;0.30;0.30;;;;;;;8.21;100.00;100769.59;6277967;28;20057;-76
2021/10/22 13:25:04;;;;;;;0.52;0.30;;;;;;;8.42;100.00;100799.28;6283010;28;20053;-77
2021/10/22 13:28:06;;;;;;;0.10;0.10;;;;;;;8.32;100.00;100809.25;6295032;28;20060;-77
2021/10/22 13:31:10;;;;;;;0.10;0.10;;;;;;;8.23;100.00;100784.34;6293864;28;20045;-76
2021/10/22 13:34:12;;;;;;;2.53;0.82;;;;;;;8.22;100.00;100779.13;6293539;28;20053;-78
2021/10/22 13:37:13;;;;;;;0.10;0.10;;;;;;;8.14;100.00;100795.19;6295522;28;20053;-80
2021/10/22 13:40:15;;;;;;;1.55;0.20;;;;;;;8.19;100.00;100793.22;6293273;28;20511;-81
2021/10/22 13:43:16;;;;;;;0.38;0.35;;;;;;;8.24;100.00;100799.13;6293760;28;20058;-79
2021/10/22 13:46:19;;;;;;;0.88;0.40;;;;;;;8.28;100.00;100803.31;6292827;28;20060;-77
2021/10/22 13:49:20;;;;;;;1.05;0.22;;;;;;;8.14;100.00;100801.28;6293216;28;20369;-77
2021/10/22 13:52:22;;;;;;;0.30;0.30;;;;;;;8.23;100.00;100812.28;6292543;28;20048;-78
2021/10/22 13:55:23;;;;;;;0.20;0.20;;;;;;;8.19;100.00;100811.56;6291988;28;20487;-77
2021/10/22 13:58:24;;;;;;;0.30;0.10;;;;;;;8.23;100.00;100820.97;6272758;28;20060;-78
2021/10/22 14:01:27;;;;;;;4.15;0.40;;;;;;;8.22;100.00;100826.25;6267779;28;20060;-77
2021/10/22 14:04:29;;;;;;;0.55;0.40;;;;;;;8.17;100.00;100823.84;6267074;28;20041;-77
2021/10/22 14:07:30;;;;;;;0.70;0.20;;;;;;;8.12;100.00;100820.56;6267419;28;20064;-77
2021/10/22 14:10:33;;;;;;;1.13;0.98;;;;;;;8.14;100.00;100834.47;6284515;28;20056;-78
2021/10/22 14:13:37;;;;;;;1.48;0.52;;;;;;;8.24;100.00;100830.53;6312540;22;20078;-75
2021/10/22 14:16:46;;;;;;;0.20;0.20;;;;;;;8.22;100.00;100840.22;6281892;28;20138;-75
2021/10/22 14:20:03;;;;;;;4.32;0.40;;;;;;;8.27;100.00;100840.88;6267232;28;20057;-73
2021/10/22 14:29:41;;;;;;;0.38;0.22;;;;;;;8.43;100.00;100863.81;6275129;28;20048;-76
2021/10/22 14:32:43;;;;;;;3.35;0.50;;;;;;;8.45;100.00;100856.72;6274684;28;20060;-75